Time;durP1;ratioP1;P1;durP2;ratioP2;P2;SDS_P1;SDS_P2;PMS_P1;PMS_P2;Temp;Humidity;BMP_temperature;BMP_pressure;BME280_temperature;BME280_humidity;BME280_pressure;Samples;Min_cycle;Max_cycle;Signal;HPM_P1;HPM_P2
2021/12/28 00:01:41;;;;;;;;;;;6.00;99.90;;;;;;5024311;28;19925;-79
2021/12/28 00:04:08;;;;;;;;;;;6.00;99.90;;;;;;5028633;28;19940;-79
2021/12/28 00:06:35;;;;;;;;;;;6.00;99.90;;;;;;5027252;28;20404;-81
2021/12/28 00:09:02;;;;;;;;;;;6.00;99.90;;;;;;5043430;28;19933;-82
2021/12/28 00:11:29;;;;;;;;;;;6.00;99.90;;;;;;5027639;28;19932;-82
2021/12/28 00:14:01;;;;;;;;;;;6.00;99.90;;;;;;5025541;28;19933;-82
2021/12/28 00:16:32;;;;;;;;;;;6.00;99.90;;;;;;5024435;28;19932;-80
2021/12/28 00:19:00;;;;;;;;;;;6.00;99.90;;;;;;5022852;28;19925;-80
2021/12/28 00:21:27;;;;;;;;;;;6.00;99.90;;;;;;5028217;28;19929;-82
2021/12/28 00:23:54;;;;;;;;;;;6.00;99.90;;;;;;5030640;28;19925;-82
2021/12/28 00:26:22;;;;;;;;;;;6.00;99.90;;;;;;5026161;28;19968;-82
2021/12/28 00:28:50;;;;;;;;;;;6.00;99.90;;;;;;5025533;28;19987;-82
2021/12/28 00:31:19;;;;;;;;;;;6.00;99.90;;;;;;5026798;28;19995;-82
2021/12/28 00:33:46;;;;;;;;;;;6.00;99.90;;;;;;5025715;28;20406;-81
2021/12/28 00:36:13;;;;;;;;;;;6.00;99.90;;;;;;5025329;28;19925;-81
2021/12/28 00:38:40;;;;;;;;;;;6.00;99.90;;;;;;5026764;28;20330;-82
2021/12/28 00:41:08;;;;;;;;;;;6.00;99.90;;;;;;5023502;28;19937;-82
2021/12/28 00:43:35;;;;;;;;;;;6.00;99.90;;;;;;5024602;28;20383;-82
2021/12/28 00:46:02;;;;;;;;;;;6.00;99.90;;;;;;5028278;28;20032;-81
2021/12/28 00:48:31;;;;;;;;;;;6.00;99.90;;;;;;5027066;28;20008;-81
2021/12/28 00:50:58;;;;;;;;;;;6.00;99.90;;;;;;5025434;28;19929;-79
2021/12/28 00:53:25;;;;;;;;;;;6.00;99.90;;;;;;5025357;28;19979;-80
2021/12/28 00:55:52;;;;;;;;;;;6.00;99.90;;;;;;5028822;28;19951;-80
2021/12/28 00:58:19;;;;;;;;;;;6.00;99.90;;;;;;5029115;28;19925;-79
2021/12/28 01:00:47;;;;;;;;;;;6.00;99.90;;;;;;5026809;28;19926;-80
2021/12/28 01:03:15;;;;;;;;;;;6.00;99.90;;;;;;5031243;28;19933;-80
2021/12/28 01:05:44;;;;;;;;;;;6.00;99.90;;;;;;5032330;28;20358;-80
2021/12/28 01:08:12;;;;;;;;;;;6.00;99.90;;;;;;5027357;28;19929;-80
2021/12/28 01:10:40;;;;;;;;;;;6.00;99.90;;;;;;5027673;28;19926;-80
2021/12/28 01:13:07;;;;;;;;;;;6.00;99.90;;;;;;5028183;28;19948;-79
2021/12/28 01:15:35;;;;;;;;;;;6.00;99.90;;;;;;5027672;28;19933;-80
2021/12/28 01:18:02;;;;;;;;;;;6.00;99.90;;;;;;5027640;28;19925;-79
2021/12/28 01:20:28;;;;;;;;;;;6.00;99.90;;;;;;5026416;28;19933;-80
2021/12/28 01:22:57;;;;;;;;;;;6.00;99.90;;;;;;5023203;28;20201;-79
2021/12/28 01:25:24;;;;;;;;;;;6.00;99.90;;;;;;5026761;28;19929;-80
2021/12/28 01:27:51;;;;;;;;;;;6.00;99.90;;;;;;5031635;28;20350;-80
2021/12/28 01:30:20;;;;;;;;;;;6.00;99.90;;;;;;5029590;28;19925;-80
2021/12/28 01:32:47;;;;;;;;;;;6.00;99.90;;;;;;5030600;28;19925;-79
2021/12/28 01:35:15;;;;;;;;;;;6.00;99.90;;;;;;5026902;28;19925;-80
2021/12/28 01:37:42;;;;;;;;;;;6.00;99.90;;;;;;5030096;28;19925;-80
2021/12/28 01:40:12;;;;;;;;;;;6.00;99.90;;;;;;5029819;28;20382;-80
2021/12/28 01:42:56;;;;;;;;;;;6.00;99.90;;;;;;5037657;28;20338;-79
2021/12/28 01:45:30;;;;;;;;;;;6.00;99.90;;;;;;5023542;28;20395;-80
2021/12/28 01:47:57;;;;;;;;;;;6.00;99.90;;;;;;5019007;28;20387;-79
2021/12/28 01:50:24;;;;;;;;;;;6.00;99.90;;;;;;5022455;28;19948;-80
2021/12/28 01:52:51;;;;;;;;;;;5.90;99.90;;;;;;5023961;28;20307;-80
2021/12/28 01:55:19;;;;;;;;;;;5.90;99.90;;;;;;5026226;28;20315;-80
2021/12/28 01:57:46;;;;;;;;;;;5.90;99.90;;;;;;5044135;28;20322;-80
2021/12/28 02:00:13;;;;;;;;;;;5.90;99.90;;;;;;5027424;28;19926;-80
2021/12/28 02:02:41;;;;;;;;;;;5.90;99.90;;;;;;5022037;28;19933;-80
2021/12/28 02:05:08;;;;;;;;;;;5.90;99.90;;;;;;5030449;28;19968;-80
2021/12/28 02:07:35;;;;;;;;;;;5.90;99.90;;;;;;5025853;28;20479;-80
2021/12/28 02:10:02;;;;;;;;;;;5.90;99.90;;;;;;5026767;28;19925;-80
2021/12/28 02:12:30;;;;;;;;;;;5.90;99.90;;;;;;5028995;28;19926;-80
2021/12/28 02:14:58;;;;;;;;;;;5.90;99.90;;;;;;5028571;28;19929;-80
2021/12/28 02:17:24;;;;;;;;;;;5.90;99.90;;;;;;5025434;28;20302;-80
2021/12/28 02:19:51;;;;;;;;;;;5.90;99.90;;;;;;5029780;28;20353;-80
2021/12/28 02:22:20;;;;;;;;;;;5.90;99.90;;;;;;5024951;28;19925;-80
2021/12/28 02:24:47;;;;;;;;;;;5.90;99.90;;;;;;5026936;28;19933;-79
2021/12/28 02:27:13;;;;;;;;;;;5.90;99.90;;;;;;5026024;28;19925;-79
2021/12/28 02:29:40;;;;;;;;;;;5.80;99.90;;;;;;5028314;28;19971;-79
2021/12/28 02:32:08;;;;;;;;;;;5.90;99.90;;;;;;5027618;28;20358;-80
2021/12/28 02:34:35;;;;;;;;;;;5.80;99.90;;;;;;5025167;28;19939;-80
2021/12/28 02:37:02;;;;;;;;;;;5.80;99.90;;;;;;5023605;28;20403;-80
2021/12/28 02:39:30;;;;;;;;;;;5.80;99.90;;;;;;5026345;28;20398;-80
2021/12/28 02:41:57;;;;;;;;;;;5.80;99.90;;;;;;5027632;28;19956;-80
2021/12/28 02:44:24;;;;;;;;;;;5.80;99.90;;;;;;5026695;28;19949;-79
2021/12/28 02:46:51;;;;;;;;;;;5.80;99.90;;;;;;5043509;28;19929;-80
2021/12/28 02:49:18;;;;;;;;;;;5.80;99.90;;;;;;5025039;28;19926;-80
2021/12/28 02:51:45;;;;;;;;;;;5.80;99.90;;;;;;5028171;28;19925;-80
2021/12/28 02:54:11;;;;;;;;;;;5.80;99.90;;;;;;5026085;28;20413;-80
2021/12/28 02:56:40;;;;;;;;;;;5.70;99.90;;;;;;5027340;28;20357;-79
2021/12/28 02:59:07;;;;;;;;;;;5.80;99.90;;;;;;5026913;28;19933;-80
2021/12/28 03:01:34;;;;;;;;;;;5.70;99.90;;;;;;5030705;28;19925;-79
2021/12/28 03:04:05;;;;;;;;;;;5.70;99.90;;;;;;5025506;28;20379;-80
2021/12/28 03:06:33;;;;;;;;;;;5.70;99.90;;;;;;5029027;28;19975;-80
2021/12/28 03:09:01;;;;;;;;;;;5.70;99.90;;;;;;5041616;28;19932;-80
2021/12/28 03:11:30;;;;;;;;;;;5.70;99.90;;;;;;5027417;28;19932;-80
2021/12/28 03:13:59;;;;;;;;;;;5.70;99.90;;;;;;5025050;28;20370;-80
2021/12/28 03:16:27;;;;;;;;;;;5.70;99.90;;;;;;5025336;28;19925;-80
2021/12/28 03:18:54;;;;;;;;;;;5.70;99.90;;;;;;5026512;28;19948;-80
2021/12/28 03:21:21;;;;;;;;;;;5.70;99.90;;;;;;5030636;28;19925;-80
2021/12/28 03:23:49;;;;;;;;;;;5.60;99.90;;;;;;5028371;28;19925;-80
2021/12/28 03:26:15;;;;;;;;;;;5.60;99.90;;;;;;5028776;28;19925;-80
2021/12/28 03:28:43;;;;;;;;;;;5.60;99.90;;;;;;5026499;28;20023;-80
2021/12/28 03:31:12;;;;;;;;;;;5.60;99.90;;;;;;5028657;28;20310;-80
2021/12/28 03:33:40;;;;;;;;;;;5.60;99.90;;;;;;5026754;28;19925;-80
2021/12/28 03:36:08;;;;;;;;;;;5.60;99.90;;;;;;5023942;28;19929;-80
2021/12/28 03:38:35;;;;;;;;;;;5.60;99.90;;;;;;5026439;28;19925;-80
2021/12/28 03:41:07;;;;;;;;;;;5.60;99.90;;;;;;5022702;28;19925;-80
2021/12/28 03:43:35;;;;;;;;;;;5.60;99.90;;;;;;5030760;28;19931;-80
2021/12/28 03:46:02;;;;;;;;;;;5.60;99.90;;;;;;5024619;28;19929;-80
2021/12/28 03:48:30;;;;;;;;;;;5.50;99.90;;;;;;5026898;28;19933;-80
2021/12/28 03:50:57;;;;;;;;;;;5.50;99.90;;;;;;5043681;28;19983;-80
2021/12/28 03:53:24;;;;;;;;;;;5.50;99.90;;;;;;5024953;28;19936;-80
2021/12/28 03:55:51;;;;;;;;;;;5.50;99.90;;;;;;5026924;28;19925;-80
2021/12/28 03:58:18;;;;;;;;;;;5.50;99.90;;;;;;5031357;28;20280;-80
2021/12/28 04:00:46;;;;;;;;;;;5.50;99.90;;;;;;5025719;28;19971;-80
2021/12/28 04:03:13;;;;;;;;;;;5.50;99.90;;;;;;5019892;28;19929;-82
2021/12/28 04:05:43;;;;;;;;;;;5.50;99.90;;;;;;5027228;28;19939;-82
2021/12/28 04:08:10;;;;;;;;;;;5.50;99.90;;;;;;5032301;28;19933;-82
2021/12/28 04:10:50;;;;;;;;;;;5.50;99.90;;;;;;5026662;28;19929;-82
2021/12/28 04:13:18;;;;;;;;;;;5.50;99.90;;;;;;5026545;28;20379;-82
2021/12/28 04:15:45;;;;;;;;;;;5.50;99.90;;;;;;5025673;28;19929;-80
2021/12/28 04:18:12;;;;;;;;;;;5.40;99.90;;;;;;5025505;28;20545;-80
2021/12/28 04:20:39;;;;;;;;;;;5.40;99.90;;;;;;5025388;28;19926;-80
2021/12/28 04:23:07;;;;;;;;;;;5.40;99.90;;;;;;5027110;28;19926;-80
2021/12/28 04:25:34;;;;;;;;;;;5.50;99.90;;;;;;5027244;28;20422;-80
2021/12/28 04:28:01;;;;;;;;;;;5.40;99.90;;;;;;5022098;28;19975;-80
2021/12/28 04:30:28;;;;;;;;;;;5.40;99.90;;;;;;5030696;28;19972;-80
2021/12/28 04:32:55;;;;;;;;;;;5.40;99.90;;;;;;5026813;28;19926;-80
2021/12/28 04:35:22;;;;;;;;;;;5.40;99.90;;;;;;5033607;28;19979;-80
2021/12/28 04:37:49;;;;;;;;;;;5.40;99.90;;;;;;5044491;28;19933;-80
2021/12/28 04:40:18;;;;;;;;;;;5.40;99.90;;;;;;5026796;28;20020;-80
2021/12/28 04:42:45;;;;;;;;;;;5.40;99.90;;;;;;5045633;28;19925;-80
2021/12/28 04:45:14;;;;;;;;;;;5.40;99.90;;;;;;5026715;28;19925;-80
2021/12/28 04:47:41;;;;;;;;;;;5.40;99.90;;;;;;5028807;28;20422;-80
2021/12/28 04:50:10;;;;;;;;;;;5.40;99.90;;;;;;5029389;28;19932;-80
2021/12/28 04:52:38;;;;;;;;;;;5.30;99.90;;;;;;5034827;28;19933;-80
2021/12/28 04:55:07;;;;;;;;;;;5.30;99.90;;;;;;5026984;28;20391;-80
2021/12/28 04:57:35;;;;;;;;;;;5.30;99.90;;;;;;5027900;28;19925;-80
2021/12/28 05:00:03;;;;;;;;;;;5.30;99.90;;;;;;5032704;28;20358;-79
2021/12/28 05:02:30;;;;;;;;;;;5.30;99.90;;;;;;5027201;28;19929;-80
2021/12/28 05:04:57;;;;;;;;;;;5.30;99.90;;;;;;5030767;28;19933;-80
2021/12/28 05:07:24;;;;;;;;;;;5.30;99.90;;;;;;5031098;28;19925;-79
2021/12/28 05:09:51;;;;;;;;;;;5.30;99.90;;;;;;5029427;28;20347;-79
2021/12/28 05:12:18;;;;;;;;;;;5.30;99.90;;;;;;5023755;28;19937;-80
2021/12/28 05:14:46;;;;;;;;;;;5.30;99.90;;;;;;5045151;28;19925;-80
2021/12/28 05:17:13;;;;;;;;;;;5.30;99.90;;;;;;5030561;28;19929;-80
2021/12/28 05:19:40;;;;;;;;;;;5.30;99.90;;;;;;5030505;28;19929;-80
2021/12/28 05:22:08;;;;;;;;;;;5.30;99.90;;;;;;5029274;28;19936;-80
2021/12/28 05:24:35;;;;;;;;;;;5.30;99.90;;;;;;5044570;28;20066;-80
2021/12/28 05:27:02;;;;;;;;;;;5.30;99.90;;;;;;5029747;28;19925;-80
2021/12/28 05:29:29;;;;;;;;;;;5.30;99.90;;;;;;5027215;28;19932;-79
2021/12/28 05:31:57;;;;;;;;;;;5.30;99.90;;;;;;5030666;28;19932;-79
2021/12/28 05:34:24;;;;;;;;;;;5.30;99.90;;;;;;5031431;28;19926;-80
2021/12/28 05:36:51;;;;;;;;;;;5.30;99.90;;;;;;5028360;28;19925;-80
2021/12/28 05:39:18;;;;;;;;;;;5.30;99.90;;;;;;5043972;28;19925;-80
2021/12/28 05:41:45;;;;;;;;;;;5.30;99.90;;;;;;5027236;28;19925;-80
2021/12/28 05:44:12;;;;;;;;;;;5.30;99.90;;;;;;5027703;28;19972;-80
2021/12/28 05:46:39;;;;;;;;;;;5.30;99.90;;;;;;5027499;28;19925;-80
2021/12/28 05:49:08;;;;;;;;;;;5.30;99.90;;;;;;5028465;28;19964;-80
2021/12/28 05:51:34;;;;;;;;;;;5.30;99.90;;;;;;5024886;28;19925;-79
2021/12/28 05:54:01;;;;;;;;;;;5.30;99.90;;;;;;5025422;28;20349;-79
2021/12/28 05:56:28;;;;;;;;;;;5.30;99.90;;;;;;5023985;28;20330;-82
2021/12/28 05:58:58;;;;;;;;;;;5.30;99.90;;;;;;5038145;28;19929;-82
2021/12/28 06:01:25;;;;;;;;;;;5.30;99.90;;;;;;5025083;28;19932;-82
2021/12/28 06:03:52;;;;;;;;;;;5.30;99.90;;;;;;5026362;28;19925;-82
2021/12/28 06:06:21;;;;;;;;;;;5.30;99.90;;;;;;5030121;28;20450;-82
2021/12/28 06:08:48;;;;;;;;;;;5.30;99.90;;;;;;5026997;28;20015;-82
2021/12/28 06:11:14;;;;;;;;;;;5.20;99.90;;;;;;5029724;28;19933;-82
2021/12/28 06:13:41;;;;;;;;;;;5.20;99.90;;;;;;5025571;28;20019;-82
2021/12/28 06:16:09;;;;;;;;;;;5.20;99.90;;;;;;5029210;28;19932;-81
2021/12/28 06:18:36;;;;;;;;;;;5.30;99.90;;;;;;5027661;28;20302;-82
2021/12/28 06:21:03;;;;;;;;;;;5.30;99.90;;;;;;5043036;28;20338;-82
2021/12/28 06:23:33;;;;;;;;;;;5.30;99.90;;;;;;5028095;28;20020;-82
2021/12/28 06:26:00;;;;;;;;;;;5.30;99.90;;;;;;5023829;28;20007;-81
2021/12/28 06:28:27;;;;;;;;;;;5.30;99.90;;;;;;5021258;28;20013;-81
2021/12/28 06:30:56;;;;;;;;;;;5.30;99.90;;;;;;5018625;28;19932;-82
2021/12/28 06:33:23;;;;;;;;;;;5.30;99.90;;;;;;5024673;28;19929;-82
2021/12/28 06:35:50;;;;;;;;;;;5.20;99.90;;;;;;5030938;28;19931;-81
2021/12/28 06:38:17;;;;;;;;;;;5.20;99.90;;;;;;5025984;28;20402;-82
2021/12/28 06:40:47;;;;;;;;;;;5.20;99.90;;;;;;5028252;28;20318;-82
2021/12/28 06:43:14;;;;;;;;;;;5.30;99.90;;;;;;5027209;28;19929;-81
2021/12/28 06:45:41;;;;;;;;;;;5.20;99.90;;;;;;5024960;28;19933;-82
2021/12/28 06:48:08;;;;;;;;;;;5.20;99.90;;;;;;5028984;28;19968;-82
2021/12/28 06:50:35;;;;;;;;;;;5.30;99.90;;;;;;5022361;28;19927;-81
2021/12/28 06:53:02;;;;;;;;;;;5.30;99.90;;;;;;5026675;28;19965;-82
2021/12/28 06:55:29;;;;;;;;;;;5.30;99.90;;;;;;5028417;28;19929;-82
2021/12/28 06:57:57;;;;;;;;;;;5.30;99.90;;;;;;5028517;28;20016;-82
2021/12/28 07:00:24;;;;;;;;;;;5.20;99.90;;;;;;5027145;28;20020;-82
2021/12/28 07:02:52;;;;;;;;;;;5.20;99.90;;;;;;5027542;28;20397;-81
2021/12/28 07:05:18;;;;;;;;;;;5.30;99.90;;;;;;5022560;28;19933;-80
2021/12/28 07:07:45;;;;;;;;;;;5.20;99.90;;;;;;5035184;28;19929;-80
2021/12/28 07:10:12;;;;;;;;;;;5.20;99.90;;;;;;5030495;28;20391;-80
2021/12/28 07:12:39;;;;;;;;;;;5.20;99.90;;;;;;5030746;28;19925;-79
2021/12/28 07:15:08;;;;;;;;;;;5.20;99.90;;;;;;5024274;28;19932;-80
2021/12/28 07:17:35;;;;;;;;;;;5.20;99.90;;;;;;5029459;28;19925;-79
2021/12/28 07:20:02;;;;;;;;;;;5.20;99.90;;;;;;5028217;28;19925;-80
2021/12/28 07:22:29;;;;;;;;;;;5.20;99.90;;;;;;5026677;28;19981;-79
2021/12/28 07:24:56;;;;;;;;;;;5.30;99.90;;;;;;5027859;28;20004;-79
2021/12/28 07:27:23;;;;;;;;;;;5.30;99.90;;;;;;5025631;28;19930;-79
2021/12/28 07:29:50;;;;;;;;;;;5.20;99.90;;;;;;5026463;28;20403;-80
2021/12/28 07:32:18;;;;;;;;;;;5.30;99.90;;;;;;5043891;28;20322;-80
2021/12/28 07:34:45;;;;;;;;;;;5.20;99.90;;;;;;5027395;28;20433;-80
2021/12/28 07:37:12;;;;;;;;;;;5.20;99.90;;;;;;5019316;28;19959;-80
2021/12/28 07:39:39;;;;;;;;;;;5.20;99.90;;;;;;5017972;28;19940;-80
2021/12/28 07:42:06;;;;;;;;;;;5.20;99.90;;;;;;5045919;28;19933;-80
2021/12/28 07:44:33;;;;;;;;;;;5.20;99.90;;;;;;5019056;28;19925;-80
2021/12/28 07:47:01;;;;;;;;;;;5.20;99.90;;;;;;5020924;28;20331;-79
2021/12/28 07:49:30;;;;;;;;;;;5.20;99.90;;;;;;5018423;28;19999;-81
2021/12/28 07:51:57;;;;;;;;;;;5.20;99.90;;;;;;5032571;28;19975;-82
2021/12/28 07:54:24;;;;;;;;;;;5.20;99.90;;;;;;5031196;28;19992;-82
2021/12/28 07:56:51;;;;;;;;;;;5.20;99.90;;;;;;5031172;28;19924;-82
2021/12/28 07:59:18;;;;;;;;;;;5.20;99.90;;;;;;5032813;28;19980;-80
2021/12/28 08:01:45;;;;;;;;;;;5.20;99.90;;;;;;5034161;28;19960;-80
2021/12/28 08:07:46;;;;;;;;;;;5.20;99.90;;;;;;5054160;28;19940;-81
2021/12/28 08:24:16;;;;;;;;;;;5.20;99.90;;;;;;5045406;22;19933;-91
2021/12/28 08:26:44;;;;;;;;;;;5.20;99.90;;;;;;5037771;28;19939;-88
2021/12/28 08:29:11;;;;;;;;;;;5.20;99.90;;;;;;5027165;28;19933;-86
2021/12/28 08:31:39;;;;;;;;;;;5.20;99.90;;;;;;5025912;28;21389;-85
2021/12/28 08:34:06;;;;;;;;;;;5.20;99.90;;;;;;5029033;28;19939;-87
2021/12/28 08:36:33;;;;;;;;;;;5.30;99.90;;;;;;5027417;28;19939;-86
2021/12/28 08:39:00;;;;;;;;;;;5.30;99.90;;;;;;5053650;28;19932;-88
2021/12/28 08:41:28;;;;;;;;;;;5.20;99.90;;;;;;5052213;28;19929;-87
2021/12/28 08:43:55;;;;;;;;;;;5.30;99.90;;;;;;5052529;28;19929;-85
2021/12/28 08:46:22;;;;;;;;;;;5.20;99.90;;;;;;5034598;28;20421;-85
2021/12/28 08:48:51;;;;;;;;;;;5.20;99.90;;;;;;5036776;28;19945;-85
2021/12/28 08:51:18;;;;;;;;;;;5.30;99.90;;;;;;5037176;28;20446;-86
2021/12/28 08:53:44;;;;;;;;;;;5.30;99.90;;;;;;5032488;28;19933;-85
2021/12/28 08:56:11;;;;;;;;;;;5.20;99.90;;;;;;5030188;28;20369;-85
2021/12/28 08:58:40;;;;;;;;;;;5.30;99.90;;;;;;5032202;28;19933;-86
2021/12/28 09:01:07;;;;;;;;;;;5.20;99.90;;;;;;5029632;28;20370;-85
2021/12/28 09:03:34;;;;;;;;;;;5.30;99.90;;;;;;5033814;28;19982;-86
2021/12/28 09:06:05;;;;;;;;;;;5.20;99.90;;;;;;5036422;28;19929;-87
2021/12/28 09:08:32;;;;;;;;;;;5.30;99.90;;;;;;5036848;28;20383;-88
2021/12/28 09:11:02;;;;;;;;;;;5.30;99.90;;;;;;5031398;28;19963;-85
2021/12/28 09:13:29;;;;;;;;;;;5.30;99.90;;;;;;5046576;28;19933;-85
2021/12/28 09:15:58;;;;;;;;;;;5.30;99.90;;;;;;5043191;28;20015;-85
2021/12/28 09:18:35;;;;;;;;;;;;;;;;;;;;;
2021/12/28 09:21:02;;;;;;;;;;;5.30;99.90;;;;;;5050411;28;19932;-87
2021/12/28 09:23:30;;;;;;;;;;;5.30;99.90;;;;;;5036276;28;19933;-86
2021/12/28 09:25:58;;;;;;;;;;;5.30;99.90;;;;;;5051099;28;20399;-86
2021/12/28 09:28:25;;;;;;;;;;;5.30;99.90;;;;;;5031995;28;19931;-86
2021/12/28 09:30:52;;;;;;;;;;;5.30;99.90;;;;;;5044246;28;19925;-86
2021/12/28 09:33:20;;;;;;;;;;;5.30;99.90;;;;;;5023603;28;19933;-86
2021/12/28 09:35:47;;;;;;;;;;;5.30;99.90;;;;;;5042807;28;19980;-86
2021/12/28 09:38:16;;;;;;;;;;;5.30;99.90;;;;;;5048081;28;19929;-86
2021/12/28 09:40:43;;;;;;;;;;;5.30;99.90;;;;;;5037751;28;19936;-86
2021/12/28 09:43:10;;;;;;;;;;;5.40;99.90;;;;;;5049765;28;20035;-87
2021/12/28 09:45:38;;;;;;;;;;;5.30;99.90;;;;;;5046623;28;19963;-86
2021/12/28 09:48:05;;;;;;;;;;;5.40;99.90;;;;;;5046433;28;19932;-86
2021/12/28 09:50:35;;;;;;;;;;;5.40;99.90;;;;;;5046464;28;20110;-85
2021/12/28 09:53:04;;;;;;;;;;;5.40;99.90;;;;;;5036776;28;19948;-86
2021/12/28 09:55:31;;;;;;;;;;;5.40;99.90;;;;;;5032351;28;19941;-85
2021/12/28 09:57:59;;;;;;;;;;;5.40;99.90;;;;;;5045586;28;19973;-85
2021/12/28 10:00:27;;;;;;;;;;;5.40;99.90;;;;;;5032977;28;19928;-88
2021/12/28 10:02:55;;;;;;;;;;;5.40;99.90;;;;;;5040929;28;19932;-86
2021/12/28 10:05:23;;;;;;;;;;;5.40;99.90;;;;;;5044852;28;19936;-86
2021/12/28 10:07:56;;;;;;;;;;;5.40;99.90;;;;;;5047188;28;19933;-85
2021/12/28 10:10:24;;;;;;;;;;;5.50;99.90;;;;;;5041091;28;19987;-86
2021/12/28 10:12:52;;;;;;;;;;;5.50;99.90;;;;;;5031962;28;19928;-85
2021/12/28 10:15:20;;;;;;;;;;;5.50;99.90;;;;;;5041603;28;20042;-85
2021/12/28 10:17:49;;;;;;;;;;;5.50;99.90;;;;;;5035471;28;19929;-86
2021/12/28 10:20:19;;;;;;;;;;;5.50;99.90;;;;;;5052865;28;19935;-85
2021/12/28 10:22:48;;;;;;;;;;;5.60;99.90;;;;;;5025663;28;19935;-85
2021/12/28 10:25:18;;;;;;;;;;;5.60;99.90;;;;;;5046496;28;20306;-85
2021/12/28 10:27:46;;;;;;;;;;;5.60;99.90;;;;;;5045524;28;20429;-87
2021/12/28 10:30:14;;;;;;;;;;;5.70;99.90;;;;;;5034373;28;19964;-85
2021/12/28 10:32:42;;;;;;;;;;;5.70;99.90;;;;;;5049102;28;19975;-85
2021/12/28 10:35:10;;;;;;;;;;;5.70;99.90;;;;;;5027855;28;20028;-85
2021/12/28 10:37:39;;;;;;;;;;;5.70;99.90;;;;;;5026241;28;19955;-85
2021/12/28 10:40:07;;;;;;;;;;;5.80;99.90;;;;;;5040193;28;19976;-85
2021/12/28 10:42:41;;;;;;;;;;;5.80;99.90;;;;;;5052438;28;19932;-86
2021/12/28 10:45:08;;;;;;;;;;;5.80;99.90;;;;;;5028620;28;19925;-86
2021/12/28 10:47:36;;;;;;;;;;;5.80;99.90;;;;;;5050013;28;20306;-87
2021/12/28 10:50:19;;;;;;;;;;;5.90;99.90;;;;;;5032549;28;19979;-86
2021/12/28 10:52:52;;;;;;;;;;;5.90;99.90;;;;;;5047402;28;21015;-85
2021/12/28 10:55:21;;;;;;;;;;;5.90;99.90;;;;;;5043375;28;20131;-86
2021/12/28 10:57:50;;;;;;;;;;;5.90;99.90;;;;;;5048462;28;19928;-85
2021/12/28 11:00:22;;;;;;;;;;;6.00;99.90;;;;;;5028880;28;20003;-87
2021/12/28 11:02:49;;;;;;;;;;;6.00;99.90;;;;;;5031836;28;19936;-85
2021/12/28 11:05:34;;;;;;;;;;;6.00;99.90;;;;;;5047879;28;20035;-86
2021/12/28 11:08:01;;;;;;;;;;;6.00;99.90;;;;;;5036538;28;19972;-85
2021/12/28 11:10:28;;;;;;;;;;;6.10;99.90;;;;;;5037304;28;20007;-85
2021/12/28 11:12:57;;;;;;;;;;;6.10;99.90;;;;;;5051577;28;20053;-85
2021/12/28 11:15:24;;;;;;;;;;;6.10;99.90;;;;;;5044725;28;19924;-85
2021/12/28 11:17:51;;;;;;;;;;;6.10;99.90;;;;;;5034178;28;19939;-86
2021/12/28 11:20:29;;;;;;;;;;;6.10;99.90;;;;;;5053833;28;19933;-85
2021/12/28 11:23:08;;;;;;;;;;;6.10;99.90;;;;;;5049107;28;19924;-85
2021/12/28 11:25:35;;;;;;;;;;;6.10;99.90;;;;;;5050629;28;20322;-86
2021/12/28 11:28:14;;;;;;;;;;;6.10;99.90;;;;;;5052113;28;19924;-85
2021/12/28 11:30:41;;;;;;;;;;;6.20;99.90;;;;;;5048203;28;19936;-86
2021/12/28 11:33:08;;;;;;;;;;;6.20;99.90;;;;;;5045207;28;19975;-85
2021/12/28 11:35:35;;;;;;;;;;;6.20;99.90;;;;;;5031896;28;19924;-85
2021/12/28 11:38:02;;;;;;;;;;;6.20;99.90;;;;;;5051094;28;19924;-86
2021/12/28 11:40:29;;;;;;;;;;;6.20;99.90;;;;;;5046883;28;19925;-86
2021/12/28 11:42:56;;;;;;;;;;;6.30;99.90;;;;;;5041997;28;20369;-87
2021/12/28 11:45:25;;;;;;;;;;;6.30;99.90;;;;;;5025886;28;20390;-85
2021/12/28 11:47:51;;;;;;;;;;;6.30;99.90;;;;;;5046149;28;19925;-85
2021/12/28 11:50:20;;;;;;;;;;;6.30;99.90;;;;;;5032431;28;20467;-85
2021/12/28 11:52:47;;;;;;;;;;;6.30;99.90;;;;;;5035973;28;19956;-86
2021/12/28 11:55:14;;;;;;;;;;;6.40;99.90;;;;;;5033999;28;20430;-85
2021/12/28 11:57:49;;;;;;;;;;;6.40;99.90;;;;;;5040178;28;19925;-86
2021/12/28 12:00:17;;;;;;;;;;;6.40;99.90;;;;;;5040968;28;19971;-85
2021/12/28 12:02:47;;;;;;;;;;;6.40;99.90;;;;;;5044085;28;19972;-88
2021/12/28 12:05:15;;;;;;;;;;;6.40;99.90;;;;;;5033087;28;19925;-86
2021/12/28 12:07:42;;;;;;;;;;;6.50;99.90;;;;;;5042816;28;19928;-85
2021/12/28 12:10:27;;;;;;;;;;;6.40;99.90;;;;;;5048053;28;19972;-85
2021/12/28 12:12:55;;;;;;;;;;;6.40;99.90;;;;;;5047544;28;19925;-86
2021/12/28 12:15:24;;;;;;;;;;;6.40;99.90;;;;;;5025630;28;19929;-86
2021/12/28 12:17:56;;;;;;;;;;;6.50;99.90;;;;;;5044077;28;19948;-86
2021/12/28 12:20:29;;;;;;;;;;;6.50;99.90;;;;;;5045827;28;19969;-87
2021/12/28 12:23:08;;;;;;;;;;;6.50;99.90;;;;;;5036919;28;20275;-86
2021/12/28 12:25:45;;;;;;;;;;;6.60;99.90;;;;;;5041731;28;20401;-86
2021/12/28 12:28:12;;;;;;;;;;;6.60;99.90;;;;;;5023043;28;19929;-85
2021/12/28 12:30:46;;;;;;;;;;;6.60;99.90;;;;;;5034248;28;19925;-85
2021/12/28 12:33:15;;;;;;;;;;;6.60;99.90;;;;;;5050117;28;19929;-85
2021/12/28 12:35:48;;;;;;;;;;;6.60;99.90;;;;;;5026602;28;20027;-87
2021/12/28 12:38:34;;;;;;;;;;;6.60;99.90;;;;;;5032310;28;20330;-85
2021/12/28 12:41:02;;;;;;;;;;;6.70;99.90;;;;;;5050456;28;19935;-86
2021/12/28 12:43:37;;;;;;;;;;;6.70;99.90;;;;;;5031112;28;19935;-86
2021/12/28 12:46:05;;;;;;;;;;;6.70;99.90;;;;;;5045688;28;19947;-87
2021/12/28 12:48:54;;;;;;;;;;;6.70;99.90;;;;;;5030584;28;19932;-86
2021/12/28 12:51:29;;;;;;;;;;;6.70;99.90;;;;;;5044701;28;19959;-86
2021/12/28 12:53:58;;;;;;;;;;;;;;;;;;5051931;28;20378;-85
2021/12/28 12:56:26;;;;;;;;;;;6.80;99.90;;;;;;5048962;28;19929;-87
2021/12/28 12:58:54;;;;;;;;;;;6.80;99.90;;;;;;5039190;28;20388;-87
2021/12/28 13:01:23;;;;;;;;;;;6.80;99.90;;;;;;5053030;28;20357;-87
2021/12/28 13:03:52;;;;;;;;;;;6.80;99.90;;;;;;5037499;28;19924;-87
2021/12/28 13:06:34;;;;;;;;;;;6.90;99.90;;;;;;5019982;28;19925;-86
2021/12/28 13:09:01;;;;;;;;;;;6.90;99.90;;;;;;5028707;28;20555;-87
2021/12/28 13:11:31;;;;;;;;;;;6.90;99.90;;;;;;5053557;28;20510;-87
2021/12/28 13:13:58;;;;;;;;;;;6.90;99.90;;;;;;5019793;28;19929;-85
2021/12/28 13:16:25;;;;;;;;;;;6.90;99.90;;;;;;5044693;28;19933;-87
2021/12/28 13:19:05;;;;;;;;;;;6.90;99.90;;;;;;5032651;28;19924;-86
2021/12/28 13:21:32;;;;;;;;;;;7.00;99.90;;;;;;5036302;28;19950;-86
2021/12/28 13:24:05;;;;;;;;;;;6.90;99.90;;;;;;5033769;28;19978;-86
2021/12/28 13:26:41;;;;;;;;;;;7.00;99.90;;;;;;5036986;28;20027;-86
2021/12/28 13:29:08;;;;;;;;;;;7.00;99.90;;;;;;5048104;28;19935;-87
2021/12/28 13:31:35;;;;;;;;;;;7.00;99.90;;;;;;5035905;28;19928;-88
2021/12/28 13:34:04;;;;;;;;;;;7.00;99.90;;;;;;5040375;28;20439;-85
2021/12/28 13:36:30;;;;;;;;;;;7.00;99.90;;;;;;5033206;28;19929;-88
2021/12/28 13:38:58;;;;;;;;;;;;;;;;;;5043742;28;19955;-89
2021/12/28 13:41:25;;;;;;;;;;;7.10;99.90;;;;;;5031226;28;20019;-89
2021/12/28 13:43:54;;;;;;;;;;;7.50;99.90;;;;;;5041341;28;20409;-90
2021/12/28 13:46:22;;;;;;;;;;;;;;;;;;5030551;28;19996;-88
2021/12/28 13:48:50;;;;;;;;;;;7.70;99.90;;;;;;5024551;28;20341;-90
2021/12/28 13:51:21;;;;;;;;;;;7.70;99.90;;;;;;5047188;28;19925;-90
2021/12/28 13:53:49;;;;;;;;;;;7.90;99.90;;;;;;5029509;28;19935;-90
2021/12/28 13:56:17;;;;;;;;;;;8.10;99.90;;;;;;5046221;28;19936;-91
2021/12/28 13:58:49;;;;;;;;;;;7.90;99.90;;;;;;5049310;28;19931;-91
2021/12/28 14:01:17;;;;;;;;;;;7.90;99.90;;;;;;5048920;28;19950;-91
2021/12/28 14:03:54;;;;;;;;;;;7.90;99.90;;;;;;5032053;28;20275;-88
2021/12/28 14:06:23;;;;;;;;;;;8.00;99.90;;;;;;5048391;28;19925;-88
2021/12/28 14:08:50;;;;;;;;;;;8.40;99.90;;;;;;5037951;28;19925;-92
2021/12/28 14:11:29;;;;;;;;;;;9.50;99.90;;;;;;5033407;28;19924;-82
2021/12/28 14:13:56;;;;;;;;;;;9.40;99.90;;;;;;5040671;28;19979;-84
2021/12/28 14:16:24;;;;;;;;;;;8.90;99.90;;;;;;5035221;28;19928;-79
2021/12/28 14:18:52;;;;;;;;;;;9.70;99.90;;;;;;5037569;28;19925;-78
2021/12/28 14:21:26;;;;;;;;;;;9.70;99.90;;;;;;5027272;28;19943;-78
2021/12/28 14:23:55;;;;;;;;;;;9.50;99.90;;;;;;5025154;28;19932;-81
2021/12/28 14:26:27;;;;;;;;;;;9.30;99.90;;;;;;5108268;22;19933;-79
2021/12/28 14:28:55;;;;;;;;;;;9.00;99.90;;;;;;5047419;28;19929;-78
2021/12/28 14:31:23;;;;;;;;;;;8.80;99.90;;;;;;5039722;28;19925;-79
2021/12/28 14:33:51;;;;;;;;;;;8.70;99.90;;;;;;5038737;28;19932;-78
2021/12/28 14:36:19;;;;;;;;;;;9.00;99.90;;;;;;5039876;28;19975;-79
2021/12/28 14:38:48;;;;;;;;;;;9.20;99.90;;;;;;5059271;28;19931;-78
2021/12/28 14:41:22;;;;;;;;;;;9.10;99.90;;;;;;5044994;28;19940;-78
2021/12/28 14:43:49;;;;;;;;;;;8.90;99.90;;;;;;5042640;28;20413;-78
2021/12/28 14:46:25;;;;;;;;;;;8.70;99.90;;;;;;5036045;28;20022;-80
2021/12/28 14:48:52;;;;;;;;;;;8.60;99.90;;;;;;5041865;28;19947;-79
2021/12/28 14:51:29;;;;;;;;;;;8.50;99.90;;;;;;5039969;28;20276;-79
2021/12/28 14:54:17;;;;;;;;;;;8.50;99.90;;;;;;5039006;28;19931;-79
2021/12/28 14:56:46;;;;;;;;;;;8.40;99.90;;;;;;5047929;28;20026;-79